sensor_id;sensor_type;location;lat;lon;timestamp;P1;durP1;ratioP1;P2;durP2;ratioP2
2522;SDS011;1272;53.332;9.860;2023-11-21T00:00:09;3.17;;;2.97;;
2522;SDS011;1272;53.332;9.860;2023-11-21T00:02:37;4.40;;;3.43;;
2522;SDS011;1272;53.332;9.860;2023-11-21T00:05:05;4.80;;;3.83;;
2522;SDS011;1272;53.332;9.860;2023-11-21T00:07:38;6.90;;;4.63;;
2522;SDS011;1272;53.332;9.860;2023-11-21T00:10:04;4.27;;;3.87;;
2522;SDS011;1272;53.332;9.860;2023-11-21T00:12:30;8.67;;;4.33;;
2522;SDS011;1272;53.332;9.860;2023-11-21T00:14:57;4.57;;;4.20;;
2522;SDS011;1272;53.332;9.860;2023-11-21T00:17:23;5.10;;;4.20;;
2522;SDS011;1272;53.332;9.860;2023-11-21T00:19:49;5.47;;;4.33;;
2522;SDS011;1272;53.332;9.860;2023-11-21T00:22:17;6.67;;;4.17;;
2522;SDS011;1272;53.332;9.860;2023-11-21T00:24:43;4.67;;;3.87;;
2522;SDS011;1272;53.332;9.860;2023-11-21T00:27:09;5.03;;;3.90;;
2522;SDS011;1272;53.332;9.860;2023-11-21T00:29:35;4.33;;;3.63;;
2522;SDS011;1272;53.332;9.860;2023-11-21T00:32:00;3.43;;;2.93;;
2522;SDS011;1272;53.332;9.860;2023-11-21T00:34:27;4.80;;;4.00;;
2522;SDS011;1272;53.332;9.860;2023-11-21T00:36:52;4.70;;;3.20;;
2522;SDS011;1272;53.332;9.860;2023-11-21T00:39:18;6.33;;;4.57;;
2522;SDS011;1272;53.332;9.860;2023-11-21T00:41:44;3.13;;;2.90;;
2522;SDS011;1272;53.332;9.860;2023-11-21T00:44:10;3.33;;;3.03;;
2522;SDS011;1272;53.332;9.860;2023-11-21T00:46:36;6.70;;;3.20;;
2522;SDS011;1272;53.332;9.860;2023-11-21T00:49:02;4.50;;;4.10;;
2522;SDS011;1272;53.332;9.860;2023-11-21T00:51:29;3.37;;;3.10;;
2522;SDS011;1272;53.332;9.860;2023-11-21T00:53:55;3.13;;;2.90;;
2522;SDS011;1272;53.332;9.860;2023-11-21T00:56:21;4.00;;;3.30;;
2522;SDS011;1272;53.332;9.860;2023-11-21T00:58:47;3.90;;;3.53;;
2522;SDS011;1272;53.332;9.860;2023-11-21T01:01:17;5.67;;;3.20;;
2522;SDS011;1272;53.332;9.860;2023-11-21T01:03:48;10.97;;;4.97;;
2522;SDS011;1272;53.332;9.860;2023-11-21T01:06:14;6.83;;;3.80;;
2522;SDS011;1272;53.332;9.860;2023-11-21T01:08:40;7.13;;;4.50;;
2522;SDS011;1272;53.332;9.860;2023-11-21T01:11:06;7.73;;;4.80;;
2522;SDS011;1272;53.332;9.860;2023-11-21T01:13:36;8.50;;;4.90;;
2522;SDS011;1272;53.332;9.860;2023-11-21T01:16:02;6.17;;;4.70;;
2522;SDS011;1272;53.332;9.860;2023-11-21T01:18:29;10.93;;;4.67;;
2522;SDS011;1272;53.332;9.860;2023-11-21T01:20:54;7.77;;;5.73;;
2522;SDS011;1272;53.332;9.860;2023-11-21T01:23:20;13.27;;;6.90;;
2522;SDS011;1272;53.332;9.860;2023-11-21T01:25:46;8.50;;;5.33;;
2522;SDS011;1272;53.332;9.860;2023-11-21T01:28:11;9.17;;;5.80;;
2522;SDS011;1272;53.332;9.860;2023-11-21T01:30:37;12.10;;;7.10;;
2522;SDS011;1272;53.332;9.860;2023-11-21T01:33:03;6.40;;;5.40;;
2522;SDS011;1272;53.332;9.860;2023-11-21T01:35:29;7.77;;;5.07;;
2522;SDS011;1272;53.332;9.860;2023-11-21T01:37:55;14.00;;;5.63;;
2522;SDS011;1272;53.332;9.860;2023-11-21T01:40:21;6.50;;;4.77;;
2522;SDS011;1272;53.332;9.860;2023-11-21T01:42:47;7.97;;;5.07;;
2522;SDS011;1272;53.332;9.860;2023-11-21T01:45:13;7.73;;;6.27;;
2522;SDS011;1272;53.332;9.860;2023-11-21T01:47:40;9.87;;;5.67;;
2522;SDS011;1272;53.332;9.860;2023-11-21T01:50:08;8.30;;;4.60;;
2522;SDS011;1272;53.332;9.860;2023-11-21T01:52:37;11.20;;;5.53;;
2522;SDS011;1272;53.332;9.860;2023-11-21T01:55:04;7.60;;;5.10;;
2522;SDS011;1272;53.332;9.860;2023-11-21T01:57:33;7.43;;;5.43;;
2522;SDS011;1272;53.332;9.860;2023-11-21T02:00:00;9.30;;;5.90;;
2522;SDS011;1272;53.332;9.860;2023-11-21T02:02:41;8.47;;;6.13;;
2522;SDS011;1272;53.332;9.860;2023-11-21T02:05:11;8.47;;;5.70;;
2522;SDS011;1272;53.332;9.860;2023-11-21T02:07:38;8.77;;;5.63;;
2522;SDS011;1272;53.332;9.860;2023-11-21T02:10:05;9.87;;;6.10;;
2522;SDS011;1272;53.332;9.860;2023-11-21T02:12:32;7.80;;;6.37;;
2522;SDS011;1272;53.332;9.860;2023-11-21T02:14:58;11.00;;;6.73;;
2522;SDS011;1272;53.332;9.860;2023-11-21T02:17:24;10.13;;;7.60;;
2522;SDS011;1272;53.332;9.860;2023-11-21T02:19:50;9.70;;;6.93;;
2522;SDS011;1272;53.332;9.860;2023-11-21T02:22:17;9.70;;;6.73;;
2522;SDS011;1272;53.332;9.860;2023-11-21T02:24:45;11.23;;;6.47;;
2522;SDS011;1272;53.332;9.860;2023-11-21T02:27:12;10.67;;;7.63;;
2522;SDS011;1272;53.332;9.860;2023-11-21T02:29:38;10.03;;;6.40;;
2522;SDS011;1272;53.332;9.860;2023-11-21T02:32:04;10.30;;;7.37;;
2522;SDS011;1272;53.332;9.860;2023-11-21T02:34:30;10.87;;;7.40;;
2522;SDS011;1272;53.332;9.860;2023-11-21T02:36:56;7.30;;;6.00;;
2522;SDS011;1272;53.332;9.860;2023-11-21T02:39:22;6.67;;;5.97;;
2522;SDS011;1272;53.332;9.860;2023-11-21T02:41:49;8.60;;;6.33;;
2522;SDS011;1272;53.332;9.860;2023-11-21T02:44:15;8.40;;;7.53;;
2522;SDS011;1272;53.332;9.860;2023-11-21T02:46:41;9.40;;;6.13;;
2522;SDS011;1272;53.332;9.860;2023-11-21T02:49:06;7.77;;;5.70;;
2522;SDS011;1272;53.332;9.860;2023-11-21T02:51:33;9.20;;;6.53;;
2522;SDS011;1272;53.332;9.860;2023-11-21T02:53:59;10.00;;;6.80;;
2522;SDS011;1272;53.332;9.860;2023-11-21T02:56:27;8.17;;;6.10;;
2522;SDS011;1272;53.332;9.860;2023-11-21T02:58:56;8.60;;;6.37;;
2522;SDS011;1272;53.332;9.860;2023-11-21T03:01:22;7.83;;;5.67;;
2522;SDS011;1272;53.332;9.860;2023-11-21T03:03:51;9.10;;;6.43;;
2522;SDS011;1272;53.332;9.860;2023-11-21T03:06:20;10.23;;;6.73;;
2522;SDS011;1272;53.332;9.860;2023-11-21T03:08:46;7.47;;;5.50;;
2522;SDS011;1272;53.332;9.860;2023-11-21T03:11:12;6.50;;;5.27;;
2522;SDS011;1272;53.332;9.860;2023-11-21T03:13:39;6.50;;;5.90;;
2522;SDS011;1272;53.332;9.860;2023-11-21T03:16:09;9.50;;;6.00;;
2522;SDS011;1272;53.332;9.860;2023-11-21T03:18:35;6.27;;;5.30;;
2522;SDS011;1272;53.332;9.860;2023-11-21T03:21:02;6.97;;;4.90;;
2522;SDS011;1272;53.332;9.860;2023-11-21T03:23:28;5.73;;;5.00;;
2522;SDS011;1272;53.332;9.860;2023-11-21T03:25:54;8.10;;;5.70;;
2522;SDS011;1272;53.332;9.860;2023-11-21T03:28:20;7.50;;;5.77;;
2522;SDS011;1272;53.332;9.860;2023-11-21T03:30:45;8.00;;;5.43;;
2522;SDS011;1272;53.332;9.860;2023-11-21T03:33:11;5.03;;;4.63;;
2522;SDS011;1272;53.332;9.860;2023-11-21T03:35:37;4.80;;;4.30;;
2522;SDS011;1272;53.332;9.860;2023-11-21T03:38:03;5.80;;;5.13;;
2522;SDS011;1272;53.332;9.860;2023-11-21T03:40:29;5.33;;;4.80;;
2522;SDS011;1272;53.332;9.860;2023-11-21T03:42:56;5.80;;;5.27;;
2522;SDS011;1272;53.332;9.860;2023-11-21T03:45:22;5.20;;;4.47;;
2522;SDS011;1272;53.332;9.860;2023-11-21T03:47:48;5.10;;;4.60;;
2522;SDS011;1272;53.332;9.860;2023-11-21T03:50:14;7.37;;;4.97;;
2522;SDS011;1272;53.332;9.860;2023-11-21T03:52:40;5.57;;;4.93;;
2522;SDS011;1272;53.332;9.860;2023-11-21T03:55:06;6.13;;;4.60;;
2522;SDS011;1272;53.332;9.860;2023-11-21T03:57:32;6.60;;;4.67;;
2522;SDS011;1272;53.332;9.860;2023-11-21T03:59:58;5.90;;;5.23;;
2522;SDS011;1272;53.332;9.860;2023-11-21T04:02:23;5.10;;;4.30;;
2522;SDS011;1272;53.332;9.860;2023-11-21T04:04:51;4.87;;;4.00;;
2522;SDS011;1272;53.332;9.860;2023-11-21T04:07:16;5.10;;;4.60;;
2522;SDS011;1272;53.332;9.860;2023-11-21T04:09:42;6.63;;;4.73;;
2522;SDS011;1272;53.332;9.860;2023-11-21T04:12:08;6.53;;;5.27;;
2522;SDS011;1272;53.332;9.860;2023-11-21T04:14:34;6.43;;;5.77;;
2522;SDS011;1272;53.332;9.860;2023-11-21T04:17:00;5.67;;;3.90;;
2522;SDS011;1272;53.332;9.860;2023-11-21T04:19:26;5.03;;;4.53;;
2522;SDS011;1272;53.332;9.860;2023-11-21T04:21:52;4.37;;;3.93;;
2522;SDS011;1272;53.332;9.860;2023-11-21T04:24:17;4.70;;;4.20;;
2522;SDS011;1272;53.332;9.860;2023-11-21T04:26:44;6.13;;;4.73;;
2522;SDS011;1272;53.332;9.860;2023-11-21T04:29:09;6.00;;;4.87;;
2522;SDS011;1272;53.332;9.860;2023-11-21T04:31:35;7.00;;;5.30;;
2522;SDS011;1272;53.332;9.860;2023-11-21T04:34:01;6.10;;;4.40;;
2522;SDS011;1272;53.332;9.860;2023-11-21T04:36:29;5.93;;;5.30;;
2522;SDS011;1272;53.332;9.860;2023-11-21T04:38:55;12.50;;;5.20;;
2522;SDS011;1272;53.332;9.860;2023-11-21T04:41:21;4.40;;;3.83;;
2522;SDS011;1272;53.332;9.860;2023-11-21T04:43:47;6.47;;;4.97;;
2522;SDS011;1272;53.332;9.860;2023-11-21T04:46:14;4.83;;;4.43;;
2522;SDS011;1272;53.332;9.860;2023-11-21T04:48:39;6.97;;;4.70;;
2522;SDS011;1272;53.332;9.860;2023-11-21T04:51:05;6.57;;;5.47;;
2522;SDS011;1272;53.332;9.860;2023-11-21T04:53:31;5.23;;;4.70;;
2522;SDS011;1272;53.332;9.860;2023-11-21T04:55:57;5.80;;;4.23;;
2522;SDS011;1272;53.332;9.860;2023-11-21T04:58:23;9.43;;;4.20;;
2522;SDS011;1272;53.332;9.860;2023-11-21T05:00:49;7.23;;;5.13;;
2522;SDS011;1272;53.332;9.860;2023-11-21T05:03:15;5.67;;;4.97;;
2522;SDS011;1272;53.332;9.860;2023-11-21T05:05:41;7.80;;;5.53;;
2522;SDS011;1272;53.332;9.860;2023-11-21T05:08:06;5.73;;;4.83;;
2522;SDS011;1272;53.332;9.860;2023-11-21T05:10:33;7.43;;;5.10;;
2522;SDS011;1272;53.332;9.860;2023-11-21T05:12:59;5.50;;;4.93;;
2522;SDS011;1272;53.332;9.860;2023-11-21T05:15:25;7.80;;;4.80;;
2522;SDS011;1272;53.332;9.860;2023-11-21T05:17:52;8.00;;;4.70;;
2522;SDS011;1272;53.332;9.860;2023-11-21T05:20:18;5.60;;;5.10;;
2522;SDS011;1272;53.332;9.860;2023-11-21T05:22:49;9.13;;;6.30;;
2522;SDS011;1272;53.332;9.860;2023-11-21T05:25:15;7.70;;;5.63;;
2522;SDS011;1272;53.332;9.860;2023-11-21T05:27:43;7.60;;;5.80;;
2522;SDS011;1272;53.332;9.860;2023-11-21T05:30:10;10.97;;;5.57;;
2522;SDS011;1272;53.332;9.860;2023-11-21T05:32:37;5.33;;;4.80;;
2522;SDS011;1272;53.332;9.860;2023-11-21T05:35:03;6.20;;;4.50;;
2522;SDS011;1272;53.332;9.860;2023-11-21T05:37:34;5.07;;;4.53;;
2522;SDS011;1272;53.332;9.860;2023-11-21T05:40:01;8.00;;;6.10;;
2522;SDS011;1272;53.332;9.860;2023-11-21T05:42:31;11.80;;;6.23;;
2522;SDS011;1272;53.332;9.860;2023-11-21T05:45:00;9.23;;;6.93;;
2522;SDS011;1272;53.332;9.860;2023-11-21T05:47:36;5.60;;;4.80;;
2522;SDS011;1272;53.332;9.860;2023-11-21T05:50:02;6.03;;;4.60;;
2522;SDS011;1272;53.332;9.860;2023-11-21T05:52:30;11.73;;;6.00;;
2522;SDS011;1272;53.332;9.860;2023-11-21T05:54:57;5.37;;;4.87;;
2522;SDS011;1272;53.332;9.860;2023-11-21T05:57:23;9.27;;;5.80;;
2522;SDS011;1272;53.332;9.860;2023-11-21T05:59:49;7.47;;;6.10;;
2522;SDS011;1272;53.332;9.860;2023-11-21T06:02:14;8.23;;;4.77;;
2522;SDS011;1272;53.332;9.860;2023-11-21T06:04:40;6.43;;;4.77;;
2522;SDS011;1272;53.332;9.860;2023-11-21T06:07:06;8.00;;;5.17;;
2522;SDS011;1272;53.332;9.860;2023-11-21T06:09:32;9.73;;;6.20;;
2522;SDS011;1272;53.332;9.860;2023-11-21T06:11:57;8.90;;;5.70;;
2522;SDS011;1272;53.332;9.860;2023-11-21T06:14:23;8.10;;;6.07;;
2522;SDS011;1272;53.332;9.860;2023-11-21T06:16:49;5.53;;;4.63;;
2522;SDS011;1272;53.332;9.860;2023-11-21T06:19:16;6.27;;;5.00;;
2522;SDS011;1272;53.332;9.860;2023-11-21T06:21:45;8.40;;;5.63;;
2522;SDS011;1272;53.332;9.860;2023-11-21T06:24:11;7.13;;;6.43;;
2522;SDS011;1272;53.332;9.860;2023-11-21T06:26:37;8.10;;;4.90;;
2522;SDS011;1272;53.332;9.860;2023-11-21T06:29:03;6.37;;;5.37;;
2522;SDS011;1272;53.332;9.860;2023-11-21T06:31:30;6.53;;;5.80;;
2522;SDS011;1272;53.332;9.860;2023-11-21T06:33:57;7.73;;;6.20;;
2522;SDS011;1272;53.332;9.860;2023-11-21T06:36:24;6.07;;;4.90;;
2522;SDS011;1272;53.332;9.860;2023-11-21T06:38:51;11.23;;;6.13;;
2522;SDS011;1272;53.332;9.860;2023-11-21T06:41:17;9.23;;;6.40;;
2522;SDS011;1272;53.332;9.860;2023-11-21T06:43:43;8.10;;;5.70;;
2522;SDS011;1272;53.332;9.860;2023-11-21T06:46:11;7.83;;;5.27;;
2522;SDS011;1272;53.332;9.860;2023-11-21T06:48:40;9.40;;;5.83;;
2522;SDS011;1272;53.332;9.860;2023-11-21T06:51:08;5.80;;;5.20;;
2522;SDS011;1272;53.332;9.860;2023-11-21T06:53:35;7.47;;;5.60;;
2522;SDS011;1272;53.332;9.860;2023-11-21T06:56:02;6.23;;;5.60;;
2522;SDS011;1272;53.332;9.860;2023-11-21T06:58:28;9.40;;;4.70;;
2522;SDS011;1272;53.332;9.860;2023-11-21T07:00:54;8.20;;;6.00;;
2522;SDS011;1272;53.332;9.860;2023-11-21T07:03:19;6.87;;;5.40;;
2522;SDS011;1272;53.332;9.860;2023-11-21T07:05:45;7.00;;;5.30;;
2522;SDS011;1272;53.332;9.860;2023-11-21T07:08:11;9.70;;;6.17;;
2522;SDS011;1272;53.332;9.860;2023-11-21T07:10:37;6.50;;;5.03;;
2522;SDS011;1272;53.332;9.860;2023-11-21T07:13:03;6.43;;;5.13;;
2522;SDS011;1272;53.332;9.860;2023-11-21T07:15:29;7.10;;;5.67;;
2522;SDS011;1272;53.332;9.860;2023-11-21T07:17:54;9.03;;;5.57;;
2522;SDS011;1272;53.332;9.860;2023-11-21T07:20:20;7.00;;;6.30;;
2522;SDS011;1272;53.332;9.860;2023-11-21T07:22:46;7.40;;;6.20;;
2522;SDS011;1272;53.332;9.860;2023-11-21T07:25:12;5.60;;;5.10;;
2522;SDS011;1272;53.332;9.860;2023-11-21T07:27:37;7.20;;;5.40;;
2522;SDS011;1272;53.332;9.860;2023-11-21T07:30:03;5.83;;;4.90;;
2522;SDS011;1272;53.332;9.860;2023-11-21T07:32:31;8.90;;;6.30;;
2522;SDS011;1272;53.332;9.860;2023-11-21T07:34:56;9.80;;;6.67;;
2522;SDS011;1272;53.332;9.860;2023-11-21T07:37:24;5.90;;;5.30;;
2522;SDS011;1272;53.332;9.860;2023-11-21T07:39:53;8.93;;;5.67;;
2522;SDS011;1272;53.332;9.860;2023-11-21T07:42:21;8.20;;;6.60;;
2522;SDS011;1272;53.332;9.860;2023-11-21T07:44:49;8.07;;;5.70;;
2522;SDS011;1272;53.332;9.860;2023-11-21T07:47:15;6.63;;;5.27;;
2522;SDS011;1272;53.332;9.860;2023-11-21T07:49:41;8.00;;;6.13;;
2522;SDS011;1272;53.332;9.860;2023-11-21T07:52:08;8.20;;;5.50;;
2522;SDS011;1272;53.332;9.860;2023-11-21T07:54:35;7.77;;;6.03;;
2522;SDS011;1272;53.332;9.860;2023-11-21T07:57:01;10.03;;;6.17;;
2522;SDS011;1272;53.332;9.860;2023-11-21T07:59:29;8.20;;;5.30;;
2522;SDS011;1272;53.332;9.860;2023-11-21T08:01:55;10.20;;;6.97;;
2522;SDS011;1272;53.332;9.860;2023-11-21T08:04:20;8.97;;;6.47;;
2522;SDS011;1272;53.332;9.860;2023-11-21T08:06:46;6.97;;;5.17;;
2522;SDS011;1272;53.332;9.860;2023-11-21T08:09:12;8.60;;;7.07;;
2522;SDS011;1272;53.332;9.860;2023-11-21T08:11:38;7.33;;;6.00;;
2522;SDS011;1272;53.332;9.860;2023-11-21T08:14:04;9.47;;;5.60;;
2522;SDS011;1272;53.332;9.860;2023-11-21T08:16:30;8.67;;;5.03;;
2522;SDS011;1272;53.332;9.860;2023-11-21T08:18:56;5.43;;;4.90;;
2522;SDS011;1272;53.332;9.860;2023-11-21T08:21:22;7.20;;;6.27;;
2522;SDS011;1272;53.332;9.860;2023-11-21T08:23:54;7.70;;;6.83;;
2522;SDS011;1272;53.332;9.860;2023-11-21T08:26:23;9.33;;;5.70;;
2522;SDS011;1272;53.332;9.860;2023-11-21T08:28:49;10.77;;;6.20;;
2522;SDS011;1272;53.332;9.860;2023-11-21T08:31:14;10.57;;;6.47;;
2522;SDS011;1272;53.332;9.860;2023-11-21T08:33:40;8.17;;;6.27;;
2522;SDS011;1272;53.332;9.860;2023-11-21T08:36:07;12.33;;;6.23;;
2522;SDS011;1272;53.332;9.860;2023-11-21T08:38:33;8.03;;;6.00;;
2522;SDS011;1272;53.332;9.860;2023-11-21T08:41:04;9.53;;;5.63;;
2522;SDS011;1272;53.332;9.860;2023-11-21T08:43:35;8.63;;;6.20;;
2522;SDS011;1272;53.332;9.860;2023-11-21T08:46:07;6.40;;;5.47;;
2522;SDS011;1272;53.332;9.860;2023-11-21T08:48:36;6.90;;;5.90;;
2522;SDS011;1272;53.332;9.860;2023-11-21T08:51:06;6.40;;;5.70;;
2522;SDS011;1272;53.332;9.860;2023-11-21T08:53:32;8.17;;;6.93;;
2522;SDS011;1272;53.332;9.860;2023-11-21T08:55:58;7.57;;;5.70;;
2522;SDS011;1272;53.332;9.860;2023-11-21T08:58:24;9.23;;;6.87;;
2522;SDS011;1272;53.332;9.860;2023-11-21T09:00:50;8.30;;;7.43;;
2522;SDS011;1272;53.332;9.860;2023-11-21T09:03:15;6.07;;;5.47;;
2522;SDS011;1272;53.332;9.860;2023-11-21T09:05:41;7.83;;;6.20;;
2522;SDS011;1272;53.332;9.860;2023-11-21T09:08:07;8.03;;;5.87;;
2522;SDS011;1272;53.332;9.860;2023-11-21T09:10:33;7.93;;;6.47;;
2522;SDS011;1272;53.332;9.860;2023-11-21T09:13:19;6.40;;;5.20;;
2522;SDS011;1272;53.332;9.860;2023-11-21T09:15:59;7.00;;;5.47;;
2522;SDS011;1272;53.332;9.860;2023-11-21T09:18:25;7.70;;;5.00;;
2522;SDS011;1272;53.332;9.860;2023-11-21T09:20:51;9.17;;;6.50;;
2522;SDS011;1272;53.332;9.860;2023-11-21T09:23:16;6.93;;;5.40;;
2522;SDS011;1272;53.332;9.860;2023-11-21T09:25:42;6.73;;;4.87;;
2522;SDS011;1272;53.332;9.860;2023-11-21T09:28:11;6.57;;;5.57;;
2522;SDS011;1272;53.332;9.860;2023-11-21T09:30:37;5.90;;;5.17;;
2522;SDS011;1272;53.332;9.860;2023-11-21T09:33:03;5.37;;;4.87;;
2522;SDS011;1272;53.332;9.860;2023-11-21T09:35:33;4.73;;;4.20;;
2522;SDS011;1272;53.332;9.860;2023-11-21T09:37:59;6.53;;;4.57;;
2522;SDS011;1272;53.332;9.860;2023-11-21T09:40:26;6.13;;;5.47;;
2522;SDS011;1272;53.332;9.860;2023-11-21T09:42:56;6.97;;;4.67;;
2522;SDS011;1272;53.332;9.860;2023-11-21T09:45:26;7.37;;;4.80;;
2522;SDS011;1272;53.332;9.860;2023-11-21T09:47:53;5.73;;;5.10;;
2522;SDS011;1272;53.332;9.860;2023-11-21T09:50:23;7.43;;;5.87;;
2522;SDS011;1272;53.332;9.860;2023-11-21T09:55:49;7.33;;;4.63;;
2522;SDS011;1272;53.332;9.860;2023-11-21T09:58:17;5.10;;;4.40;;
2522;SDS011;1272;53.332;9.860;2023-11-21T10:00:45;8.37;;;5.47;;
2522;SDS011;1272;53.332;9.860;2023-11-21T10:03:11;7.17;;;4.10;;
2522;SDS011;1272;53.332;9.860;2023-11-21T10:05:38;4.27;;;3.97;;
2522;SDS011;1272;53.332;9.860;2023-11-21T10:08:08;5.57;;;4.20;;
2522;SDS011;1272;53.332;9.860;2023-11-21T10:10:45;4.27;;;3.87;;
2522;SDS011;1272;53.332;9.860;2023-11-21T10:13:14;4.73;;;4.10;;
2522;SDS011;1272;53.332;9.860;2023-11-21T10:15:43;5.33;;;4.63;;
2522;SDS011;1272;53.332;9.860;2023-11-21T10:18:13;4.40;;;4.00;;
2522;SDS011;1272;53.332;9.860;2023-11-21T10:20:44;3.30;;;3.10;;
2522;SDS011;1272;53.332;9.860;2023-11-21T10:23:17;3.40;;;3.20;;
2522;SDS011;1272;53.332;9.860;2023-11-21T10:25:44;4.77;;;4.30;;
2522;SDS011;1272;53.332;9.860;2023-11-21T10:28:10;3.00;;;2.80;;
2522;SDS011;1272;53.332;9.860;2023-11-21T10:30:36;3.03;;;2.80;;
2522;SDS011;1272;53.332;9.860;2023-11-21T10:33:06;3.90;;;3.60;;
2522;SDS011;1272;53.332;9.860;2023-11-21T10:35:45;3.10;;;2.90;;
2522;SDS011;1272;53.332;9.860;2023-11-21T10:38:15;3.90;;;3.60;;
2522;SDS011;1272;53.332;9.860;2023-11-21T10:40:47;3.53;;;3.23;;
2522;SDS011;1272;53.332;9.860;2023-11-21T10:43:14;4.17;;;3.03;;
2522;SDS011;1272;53.332;9.860;2023-11-21T10:45:41;4.13;;;3.20;;
2522;SDS011;1272;53.332;9.860;2023-11-21T10:48:11;3.70;;;3.40;;
2522;SDS011;1272;53.332;9.860;2023-11-21T10:50:42;4.33;;;3.50;;
2522;SDS011;1272;53.332;9.860;2023-11-21T10:53:09;3.43;;;3.13;;
2522;SDS011;1272;53.332;9.860;2023-11-21T10:55:37;2.83;;;2.63;;
2522;SDS011;1272;53.332;9.860;2023-11-21T10:58:03;4.13;;;3.73;;
2522;SDS011;1272;53.332;9.860;2023-11-21T11:00:30;3.90;;;3.60;;
2522;SDS011;1272;53.332;9.860;2023-11-21T11:02:57;4.00;;;3.70;;
2522;SDS011;1272;53.332;9.860;2023-11-21T11:05:24;3.60;;;3.33;;
2522;SDS011;1272;53.332;9.860;2023-11-21T11:07:52;3.50;;;3.20;;
2522;SDS011;1272;53.332;9.860;2023-11-21T11:10:26;3.70;;;3.40;;
2522;SDS011;1272;53.332;9.860;2023-11-21T11:12:54;3.73;;;3.43;;
2522;SDS011;1272;53.332;9.860;2023-11-21T11:15:22;4.30;;;3.77;;
2522;SDS011;1272;53.332;9.860;2023-11-21T11:17:48;3.90;;;3.23;;
2522;SDS011;1272;53.332;9.860;2023-11-21T11:20:16;3.07;;;2.77;;
2522;SDS011;1272;53.332;9.860;2023-11-21T11:33:22;3.30;;;3.10;;
2522;SDS011;1272;53.332;9.860;2023-11-21T11:36:13;3.00;;;2.80;;
2522;SDS011;1272;53.332;9.860;2023-11-21T11:38:51;3.37;;;3.00;;
2522;SDS011;1272;53.332;9.860;2023-11-21T11:41:27;3.03;;;2.87;;
2522;SDS011;1272;53.332;9.860;2023-11-21T11:43:57;2.97;;;2.70;;
2522;SDS011;1272;53.332;9.860;2023-11-21T11:46:42;2.80;;;2.60;;
2522;SDS011;1272;53.332;9.860;2023-11-21T11:49:24;3.57;;;2.80;;
2522;SDS011;1272;53.332;9.860;2023-11-21T11:54:55;2.90;;;2.70;;
2522;SDS011;1272;53.332;9.860;2023-11-21T11:57:24;3.43;;;3.13;;
2522;SDS011;1272;53.332;9.860;2023-11-21T12:00:09;3.10;;;2.80;;
2522;SDS011;1272;53.332;9.860;2023-11-21T12:02:40;3.33;;;2.83;;
2522;SDS011;1272;53.332;9.860;2023-11-21T12:05:09;5.03;;;3.40;;
2522;SDS011;1272;53.332;9.860;2023-11-21T12:07:53;3.27;;;2.97;;
2522;SDS011;1272;53.332;9.860;2023-11-21T12:10:22;3.43;;;3.20;;
2522;SDS011;1272;53.332;9.860;2023-11-21T12:12:50;2.77;;;2.40;;
2522;SDS011;1272;53.332;9.860;2023-11-21T12:15:20;2.23;;;2.10;;
2522;SDS011;1272;53.332;9.860;2023-11-21T12:17:46;3.67;;;3.03;;
2522;SDS011;1272;53.332;9.860;2023-11-21T12:20:14;3.00;;;2.80;;
2522;SDS011;1272;53.332;9.860;2023-11-21T12:22:44;2.70;;;2.50;;
2522;SDS011;1272;53.332;9.860;2023-11-21T12:25:13;2.67;;;2.47;;
2522;SDS011;1272;53.332;9.860;2023-11-21T12:27:44;2.80;;;2.43;;
2522;SDS011;1272;53.332;9.860;2023-11-21T12:30:15;2.83;;;2.73;;
2522;SDS011;1272;53.332;9.860;2023-11-21T12:32:42;2.90;;;2.73;;
2522;SDS011;1272;53.332;9.860;2023-11-21T12:35:11;2.73;;;2.53;;
2522;SDS011;1272;53.332;9.860;2023-11-21T12:37:38;3.47;;;3.17;;
2522;SDS011;1272;53.332;9.860;2023-11-21T12:40:05;2.53;;;2.40;;
2522;SDS011;1272;53.332;9.860;2023-11-21T12:42:40;3.00;;;2.80;;
2522;SDS011;1272;53.332;9.860;2023-11-21T12:45:07;3.00;;;2.80;;
2522;SDS011;1272;53.332;9.860;2023-11-21T12:47:40;3.23;;;2.63;;
2522;SDS011;1272;53.332;9.860;2023-11-21T12:50:07;4.40;;;2.93;;
2522;SDS011;1272;53.332;9.860;2023-11-21T12:52:39;4.07;;;2.67;;
2522;SDS011;1272;53.332;9.860;2023-11-21T12:55:06;4.03;;;3.13;;
2522;SDS011;1272;53.332;9.860;2023-11-21T12:57:33;3.03;;;2.80;;
2522;SDS011;1272;53.332;9.860;2023-11-21T12:59:58;3.13;;;2.63;;
2522;SDS011;1272;53.332;9.860;2023-11-21T13:02:29;2.97;;;2.70;;
2522;SDS011;1272;53.332;9.860;2023-11-21T13:04:56;2.67;;;2.47;;
2522;SDS011;1272;53.332;9.860;2023-11-21T13:07:23;4.10;;;3.17;;
2522;SDS011;1272;53.332;9.860;2023-11-21T13:09:52;3.50;;;3.17;;
2522;SDS011;1272;53.332;9.860;2023-11-21T13:12:23;2.93;;;2.73;;
2522;SDS011;1272;53.332;9.860;2023-11-21T13:14:50;7.13;;;2.70;;
2522;SDS011;1272;53.332;9.860;2023-11-21T13:17:16;2.53;;;2.33;;
2522;SDS011;1272;53.332;9.860;2023-11-21T13:19:42;3.13;;;2.90;;
2522;SDS011;1272;53.332;9.860;2023-11-21T13:22:08;3.50;;;3.30;;
2522;SDS011;1272;53.332;9.860;2023-11-21T13:24:36;3.17;;;2.90;;
2522;SDS011;1272;53.332;9.860;2023-11-21T13:27:02;2.90;;;2.70;;
2522;SDS011;1272;53.332;9.860;2023-11-21T13:29:27;3.40;;;2.80;;
2522;SDS011;1272;53.332;9.860;2023-11-21T13:31:54;2.70;;;2.50;;
2522;SDS011;1272;53.332;9.860;2023-11-21T13:34:20;3.20;;;2.90;;
2522;SDS011;1272;53.332;9.860;2023-11-21T13:36:47;3.53;;;3.23;;
2522;SDS011;1272;53.332;9.860;2023-11-21T13:39:13;3.60;;;3.00;;
2522;SDS011;1272;53.332;9.860;2023-11-21T13:41:41;4.43;;;3.33;;
2522;SDS011;1272;53.332;9.860;2023-11-21T13:44:07;3.43;;;3.13;;
2522;SDS011;1272;53.332;9.860;2023-11-21T13:47:02;4.10;;;2.90;;
2522;SDS011;1272;53.332;9.860;2023-11-21T13:49:30;4.53;;;2.90;;
2522;SDS011;1272;53.332;9.860;2023-11-21T13:52:01;3.13;;;2.90;;
2522;SDS011;1272;53.332;9.860;2023-11-21T13:54:28;4.07;;;2.80;;
2522;SDS011;1272;53.332;9.860;2023-11-21T13:56:54;3.70;;;3.40;;
2522;SDS011;1272;53.332;9.860;2023-11-21T13:59:20;2.97;;;2.70;;
2522;SDS011;1272;53.332;9.860;2023-11-21T14:01:48;3.70;;;3.40;;
2522;SDS011;1272;53.332;9.860;2023-11-21T14:04:18;4.10;;;3.10;;
2522;SDS011;1272;53.332;9.860;2023-11-21T14:06:44;3.40;;;3.10;;
2522;SDS011;1272;53.332;9.860;2023-11-21T14:09:18;3.60;;;3.20;;
2522;SDS011;1272;53.332;9.860;2023-11-21T14:11:56;3.30;;;3.00;;
2522;SDS011;1272;53.332;9.860;2023-11-21T14:14:24;3.20;;;2.90;;
2522;SDS011;1272;53.332;9.860;2023-11-21T14:16:51;3.57;;;3.27;;
2522;SDS011;1272;53.332;9.860;2023-11-21T14:19:21;3.80;;;2.70;;
2522;SDS011;1272;53.332;9.860;2023-11-21T14:21:47;3.93;;;3.20;;
2522;SDS011;1272;53.332;9.860;2023-11-21T14:24:15;2.90;;;2.67;;
2522;SDS011;1272;53.332;9.860;2023-11-21T14:26:47;2.93;;;2.73;;
2522;SDS011;1272;53.332;9.860;2023-11-21T14:29:14;3.77;;;2.60;;
2522;SDS011;1272;53.332;9.860;2023-11-21T14:31:44;2.57;;;2.40;;
2522;SDS011;1272;53.332;9.860;2023-11-21T14:34:10;3.70;;;3.40;;
2522;SDS011;1272;53.332;9.860;2023-11-21T14:36:37;2.77;;;2.57;;
2522;SDS011;1272;53.332;9.860;2023-11-21T14:39:04;3.00;;;2.80;;
2522;SDS011;1272;53.332;9.860;2023-11-21T14:41:41;3.50;;;3.07;;
2522;SDS011;1272;53.332;9.860;2023-11-21T14:44:08;3.73;;;3.50;;
2522;SDS011;1272;53.332;9.860;2023-11-21T14:46:37;3.57;;;2.77;;
2522;SDS011;1272;53.332;9.860;2023-11-21T14:49:04;5.93;;;3.00;;
2522;SDS011;1272;53.332;9.860;2023-11-21T14:51:51;3.30;;;3.10;;
2522;SDS011;1272;53.332;9.860;2023-11-21T14:54:38;3.73;;;3.43;;
2522;SDS011;1272;53.332;9.860;2023-11-21T14:57:11;3.43;;;3.13;;
2522;SDS011;1272;53.332;9.860;2023-11-21T14:59:46;3.50;;;3.20;;
2522;SDS011;1272;53.332;9.860;2023-11-21T15:02:14;3.00;;;2.80;;
2522;SDS011;1272;53.332;9.860;2023-11-21T15:04:43;3.40;;;2.93;;
2522;SDS011;1272;53.332;9.860;2023-11-21T15:07:09;3.10;;;2.77;;
2522;SDS011;1272;53.332;9.860;2023-11-21T15:09:36;2.90;;;2.63;;
2522;SDS011;1272;53.332;9.860;2023-11-21T15:12:09;3.60;;;3.30;;
2522;SDS011;1272;53.332;9.860;2023-11-21T15:14:40;3.07;;;2.87;;
2522;SDS011;1272;53.332;9.860;2023-11-21T15:17:08;2.87;;;2.67;;
2522;SDS011;1272;53.332;9.860;2023-11-21T15:19:34;3.73;;;3.43;;
2522;SDS011;1272;53.332;9.860;2023-11-21T15:22:00;3.33;;;3.00;;
2522;SDS011;1272;53.332;9.860;2023-11-21T15:24:27;3.40;;;3.10;;
2522;SDS011;1272;53.332;9.860;2023-11-21T15:26:53;9.80;;;7.03;;
2522;SDS011;1272;53.332;9.860;2023-11-21T15:29:19;21.93;;;11.60;;
2522;SDS011;1272;53.332;9.860;2023-11-21T15:31:46;4.23;;;3.50;;
2522;SDS011;1272;53.332;9.860;2023-11-21T15:34:16;4.73;;;4.00;;